Time;durP1;ratioP1;P1;durP2;ratioP2;P2;SDS_P1;SDS_P2;PMS_P1;PMS_P2;Temp;Humidity;BMP_temperature;BMP_pressure;BME280_temperature;BME280_humidity;BME280_pressure;Samples;Min_cycle;Max_cycle;Signal;HPM_P1;HPM_P2
2023/10/14 00:01:13;;;;;;;1.10;1.00;;;;;;;18.50;53.32;97972.04;105016;1262;66283;-45
2023/10/14 00:03:42;;;;;;;1.20;1.10;;;;;;;18.50;53.39;97969.73;105269;1261;72433;-45
2023/10/14 00:06:11;;;;;;;1.30;1.20;;;;;;;18.50;53.45;97970.89;105215;1260;61357;-45
2023/10/14 00:09:08;;;;;;;2.50;1.20;;;;;;;18.50;53.40;97968.40;105061;1265;61254;-45
2023/10/14 00:11:43;;;;;;;1.10;1.00;;;;;;;18.50;53.32;97967.21;105611;1262;74316;-44
2023/10/14 00:14:15;;;;;;;1.10;1.10;;;;;;;18.49;53.35;97961.78;105281;1261;66103;-45
2023/10/14 00:16:49;;;;;;;1.30;1.20;;;;;;;18.49;53.36;97960.22;106708;1264;72313;-45
2023/10/14 00:19:17;;;;;;;1.30;1.20;;;;;;;18.49;53.36;97956.90;105309;1260;61266;-44
2023/10/14 00:21:45;;;;;;;3.20;1.40;;;;;;;18.49;53.35;97954.50;105461;1262;61200;-46
2023/10/14 00:24:25;;;;;;;1.40;1.10;;;;;;;18.49;53.37;97947.38;105258;1263;74587;-46
2023/10/14 00:26:57;;;;;;;1.60;1.20;;;;;;;18.49;53.34;97943.11;105193;1265;65103;-44
2023/10/14 00:29:24;;;;;;;1.30;1.20;;;;;;;18.48;53.28;97935.50;105149;1263;71263;-45
2023/10/14 00:31:52;;;;;;;1.40;1.30;;;;;;;18.49;53.33;97938.14;104972;1264;61173;-46
2023/10/14 00:34:22;;;;;;;1.30;1.20;;;;;;;18.48;53.38;97933.46;105085;1265;61353;-46
2023/10/14 00:36:49;;;;;;;2.70;1.10;;;;;;;18.48;53.34;97929.38;105297;1265;74414;-44
2023/10/14 00:39:17;;;;;;;1.40;1.30;;;;;;;18.48;53.37;97930.21;105174;1261;66438;-45
2023/10/14 00:41:44;;;;;;;1.30;1.20;;;;;;;18.48;53.29;97926.41;105138;1261;72522;-44
2023/10/14 00:44:11;;;;;;;2.00;1.10;;;;;;;18.47;53.26;97926.55;105235;1261;61313;-44
2023/10/14 00:46:42;;;;;;;1.30;1.00;;;;;;;18.48;53.34;97923.55;105191;1262;61284;-44
2023/10/14 00:49:10;;;;;;;1.30;1.10;;;;;;;18.47;53.30;97921.88;105244;1264;75036;-44
2023/10/14 00:51:42;;;;;;;2.80;1.20;;;;;;;18.47;53.29;97924.77;105602;1262;66099;-44
2023/10/14 00:54:11;;;;;;;1.30;1.10;;;;;;;18.47;53.30;97922.75;104928;1260;72579;-45
2023/10/14 00:56:41;;;;;;;1.50;1.40;;;;;;;18.47;53.31;97916.31;105337;1262;61224;-44
2023/10/14 00:59:09;;;;;;;1.20;1.10;;;;;;;18.47;53.33;97912.68;104930;1262;61398;-43
2023/10/14 01:04:22;;;;;;;2.00;1.10;;;;;;;18.47;53.27;97909.80;104968;1264;65863;-45
2023/10/14 01:12:29;;;;;;;1.80;1.30;;;;;;;18.46;53.21;97898.23;105156;1261;61378;-44
2023/10/14 01:14:59;;;;;;;1.30;1.20;;;;;;;18.46;53.29;97893.73;105214;1264;74416;-44
2023/10/14 01:17:29;;;;;;;1.20;1.10;;;;;;;18.45;53.32;97889.20;105228;1267;65627;-44
2023/10/14 01:20:11;;;;;;;1.20;1.10;;;;;;;18.45;53.21;97888.48;105194;1261;72624;-45
2023/10/14 01:22:38;;;;;;;1.20;1.10;;;;;;;18.45;53.26;97884.00;105232;1264;61258;-44
2023/10/14 01:25:11;;;;;;;1.20;1.00;;;;;;;18.44;53.30;97878.48;105229;1262;61335;-43
2023/10/14 01:27:42;;;;;;;1.60;1.40;;;;;;;18.45;53.29;97873.30;105109;1260;73293;-45
2023/10/14 01:30:14;;;;;;;3.30;1.20;;;;;;;18.44;53.22;97867.10;104947;1264;66029;-44
2023/10/14 01:38:00;;;;;;;1.50;1.20;;;;;;;18.44;53.30;97857.09;104946;1262;61283;-44
2023/10/14 01:40:35;;;;;;;2.30;1.30;;;;;;;18.44;53.32;97858.79;105043;1260;74359;-45
2023/10/14 01:43:08;;;;;;;1.90;1.30;;;;;;;18.44;53.28;97861.98;105234;1264;65350;-45
2023/10/14 01:45:39;;;;;;;2.60;1.10;;;;;;;18.43;53.35;97857.39;105198;1262;71277;-43
2023/10/14 01:50:54;;;;;;;2.50;1.10;;;;;;;18.43;53.26;97849.38;104962;1260;61284;-45
2023/10/14 01:53:31;;;;;;;1.00;0.90;;;;;;;18.43;53.23;97846.83;104959;1264;73384;-44
2023/10/14 01:55:59;;;;;;;1.30;1.20;;;;;;;18.43;53.30;97842.02;105024;1264;66186;-44
2023/10/14 02:01:12;;;;;;;1.40;1.10;;;;;;;18.42;53.22;97836.81;105152;1266;61478;-44
2023/10/14 02:03:54;;;;;;;1.80;1.40;;;;;;;18.43;53.31;97837.13;105209;1260;61366;-43
2023/10/14 02:06:26;;;;;;;1.80;1.30;;;;;;;18.43;53.27;97831.16;105779;1261;74563;-45
2023/10/14 02:08:54;;;;;;;2.40;1.20;;;;;;;18.42;53.21;97829.06;105199;1264;66037;-43
2023/10/14 02:11:21;;;;;;;1.80;1.40;;;;;;;18.42;53.19;97826.20;104942;1265;73640;-42
2023/10/14 02:13:51;;;;;;;2.10;1.10;;;;;;;18.42;53.28;97823.48;105125;1264;61621;-44
2023/10/14 02:16:24;;;;;;;1.20;1.10;;;;;;;18.42;53.19;97820.91;105210;1263;61291;-44
2023/10/14 02:19:00;;;;;;;1.30;1.20;;;;;;;18.42;53.21;97821.85;105194;1267;74028;-43
2023/10/14 02:21:33;;;;;;;2.10;1.20;;;;;;;18.42;53.19;97820.45;105101;1265;65773;-42
2023/10/14 02:24:00;;;;;;;1.70;1.10;;;;;;;18.42;53.21;97824.72;105100;1261;72692;-42
2023/10/14 02:26:30;;;;;;;2.40;1.20;;;;;;;18.41;53.21;97821.77;105192;1265;61257;-45
2023/10/14 02:28:57;;;;;;;1.90;1.50;;;;;;;18.42;53.13;97825.02;105218;1265;61221;-47
2023/10/14 02:33:55;;;;;;;1.40;1.20;;;;;;;18.41;53.20;97820.76;105187;1264;65815;-46
2023/10/14 02:36:27;;;;;;;1.40;1.10;;;;;;;18.41;53.23;97820.21;105213;1260;72510;-45
2023/10/14 02:38:54;;;;;;;1.60;1.10;;;;;;;18.41;53.15;97819.52;105141;1264;61335;-47
2023/10/14 02:41:26;;;;;;;1.20;1.10;;;;;;;18.41;53.17;97814.86;104914;1262;61268;-43
2023/10/14 02:44:01;;;;;;;1.40;1.00;;;;;;;18.41;53.14;97811.54;105118;1265;74621;-41
2023/10/14 02:46:28;;;;;;;;;;;;;;;18.41;53.14;97806.88;105745;1264;66053;-45
2023/10/14 02:48:54;;;;;;;1.70;1.10;;;;;;;18.41;53.13;97806.32;105218;1262;72613;-46
2023/10/14 02:52:08;;;;;;;1.60;1.10;;;;;;;18.40;53.15;97801.41;105198;1264;61257;-47
2023/10/14 02:54:15;;;;;;;1.30;1.10;;;;;;;18.40;53.10;97803.52;105136;1262;61269;-46
2023/10/14 02:59:16;;;;;;;1.40;1.10;;;;;;;18.40;53.17;97802.59;104982;1260;66178;-45
2023/10/14 03:01:44;;;;;;;1.60;1.10;;;;;;;18.39;53.17;97801.64;105233;1262;71707;-46
2023/10/14 03:04:13;;;;;;;1.60;1.40;;;;;;;18.40;53.20;97796.15;105694;1260;61397;-45
2023/10/14 03:06:53;;;;;;;1.20;1.00;;;;;;;18.40;53.19;97794.69;105552;1260;61328;-47
2023/10/14 03:09:20;;;;;;;1.80;1.30;;;;;;;18.39;53.14;97792.17;104999;1260;74417;-47
2023/10/14 03:11:49;;;;;;;1.20;1.10;;;;;;;18.40;53.24;97793.51;105108;1264;66518;-47
2023/10/14 03:14:17;;;;;;;1.20;1.10;;;;;;;18.40;53.10;97792.04;104890;1261;72600;-45
2023/10/14 03:16:44;;;;;;;1.30;1.10;;;;;;;18.39;53.15;97789.62;105213;1264;61224;-45
2023/10/14 03:19:11;;;;;;;1.20;1.10;;;;;;;18.40;53.18;97786.94;104963;1261;61244;-46
2023/10/14 03:21:52;;;;;;;1.30;1.20;;;;;;;18.40;53.14;97782.60;105271;1261;74380;-47
2023/10/14 03:24:19;;;;;;;2.60;1.20;;;;;;;18.39;53.10;97777.48;104826;1264;65034;-46
2023/10/14 03:26:48;;;;;;;1.00;0.90;;;;;;;18.39;53.09;97777.23;104700;1262;72751;-46
2023/10/14 03:29:16;;;;;;;1.40;1.00;;;;;;;18.39;53.14;97774.98;105129;1264;61374;-45
2023/10/14 03:31:44;;;;;;;1.50;1.30;;;;;;;18.39;53.10;97771.04;105429;1262;61274;-45
2023/10/14 03:34:12;;;;;;;1.30;1.10;;;;;;;18.39;53.17;97766.32;104950;1261;75599;-45
2023/10/14 03:36:42;;;;;;;1.50;1.10;;;;;;;18.39;53.07;97766.08;105241;1262;65963;-46
2023/10/14 03:39:28;;;;;;;1.40;1.20;;;;;;;18.39;53.06;97763.60;105268;1262;72462;-47
2023/10/14 03:41:55;;;;;;;1.10;1.00;;;;;;;18.38;53.08;97758.70;105291;1265;61273;-48
2023/10/14 03:44:23;;;;;;;1.50;1.30;;;;;;;18.39;53.08;97757.41;105313;1262;61284;-45
2023/10/14 03:46:59;;;;;;;1.40;1.30;;;;;;;18.39;53.11;97754.14;105307;1264;74426;-46
2023/10/14 03:49:26;;;;;;;1.10;1.00;;;;;;;18.39;53.09;97752.20;105000;1264;66246;-46
2023/10/14 03:51:56;;;;;;;1.20;1.10;;;;;;;18.39;53.12;97750.57;105064;1261;72643;-46
2023/10/14 03:54:26;;;;;;;1.50;1.30;;;;;;;18.39;53.07;97747.56;105278;1264;61271;-45
2023/10/14 03:56:52;;;;;;;1.20;1.10;;;;;;;18.38;53.05;97746.45;105315;1262;61458;-47
2023/10/14 03:59:26;;;;;;;1.30;1.20;;;;;;;18.39;53.04;97745.39;105227;1264;74459;-46
2023/10/14 04:02:11;;;;;;;1.20;1.10;;;;;;;18.39;53.07;97742.75;105188;1262;66225;-48
2023/10/14 04:04:42;;;;;;;1.30;1.10;;;;;;;18.38;53.05;97739.80;105216;1264;72458;-48
2023/10/14 04:09:37;;;;;;;1.30;1.20;;;;;;;18.38;53.14;97734.98;105051;1261;61280;-46
2023/10/14 04:12:53;;;;;;;1.40;1.00;;;;;;;18.37;53.03;97732.41;104954;1264;72829;-47
2023/10/14 04:14:54;;;;;;;1.40;1.20;;;;;;;18.37;53.13;97731.33;104780;1265;66624;-45
2023/10/14 04:17:22;;;;;;;2.20;1.10;;;;;;;18.37;53.06;97733.48;104966;1262;72500;-44
2023/10/14 04:20:10;;;;;;;1.60;1.20;;;;;;;18.36;53.11;97732.69;104992;1265;61241;-44
2023/10/14 04:22:40;;;;;;;1.30;1.20;;;;;;;18.36;53.08;97729.36;105006;1262;61254;-44
2023/10/14 04:35:23;;;;;;;1.30;1.10;;;;;;;18.36;53.05;97724.30;105255;1262;61396;-44
2023/10/14 04:37:54;;;;;;;1.10;1.00;;;;;;;18.36;53.07;97722.92;105219;1263;74372;-44
2023/10/14 04:43:02;;;;;;;1.40;1.10;;;;;;;18.36;53.04;97724.63;105205;1261;72693;-44
2023/10/14 04:45:32;;;;;;;1.50;1.10;;;;;;;18.36;52.98;97721.99;105209;1263;61417;-44
2023/10/14 04:48:00;;;;;;;2.50;1.40;;;;;;;18.36;53.04;97719.67;104954;1262;61359;-45
2023/10/14 04:50:27;;;;;;;2.20;1.40;;;;;;;18.35;53.09;97718.17;104944;1265;74440;-45
2023/10/14 04:52:53;;;;;;;1.40;1.30;;;;;;;18.36;52.99;97715.46;104957;1265;66133;-45
2023/10/14 04:55:25;;;;;;;1.20;1.00;;;;;;;18.35;53.00;97713.21;104982;1260;72660;-45
2023/10/14 04:58:26;;;;;;;1.10;1.00;;;;;;;18.35;53.03;97711.13;105217;1265;61267;-45
2023/10/14 05:00:46;;;;;;;1.80;1.00;;;;;;;18.35;52.96;97705.84;104865;1262;61291;-45
2023/10/14 05:03:15;;;;;;;1.20;1.10;;;;;;;18.35;52.99;97710.19;105004;1265;74614;-45
2023/10/14 05:06:43;;;;;;;1.20;1.10;;;;;;;18.35;53.01;97709.26;104839;1262;66285;-45
2023/10/14 05:08:44;;;;;;;1.60;1.10;;;;;;;18.35;53.04;97710.48;105086;1260;70477;-45
2023/10/14 05:11:18;;;;;;;1.20;1.10;;;;;;;18.35;53.01;97712.27;104908;1265;61271;-44
2023/10/14 05:16:39;;;;;;;1.90;1.40;;;;;;;18.35;53.02;97714.29;104892;1262;74674;-44
2023/10/14 05:19:11;;;;;;;2.00;1.10;;;;;;;18.36;53.05;97710.90;104880;1268;66104;-44
2023/10/14 05:21:44;;;;;;;1.40;1.00;;;;;;;18.36;52.97;97711.12;105505;1262;72509;-44
2023/10/14 05:24:12;;;;;;;1.10;0.90;;;;;;;18.36;53.05;97713.45;105085;1265;61357;-44
2023/10/14 05:26:46;;;;;;;1.90;1.40;;;;;;;18.35;53.00;97713.45;105294;1264;61255;-45
2023/10/14 05:29:17;;;;;;;1.10;1.00;;;;;;;18.36;53.00;97711.83;104985;1262;73178;-44
2023/10/14 05:31:47;;;;;;;1.30;1.10;;;;;;;18.35;52.98;97708.09;105013;1266;66085;-44
2023/10/14 05:34:15;;;;;;;1.20;1.10;;;;;;;18.36;52.92;97710.20;105010;1262;72570;-45
2023/10/14 05:36:42;;;;;;;1.20;1.10;;;;;;;18.37;53.05;97708.16;105018;1265;61277;-45
2023/10/14 05:39:10;;;;;;;1.40;1.20;;;;;;;18.36;52.96;97706.82;104930;1262;61263;-44
2023/10/14 05:41:38;;;;;;;1.50;1.20;;;;;;;18.36;52.93;97701.40;105578;1262;74259;-44
2023/10/14 05:44:07;;;;;;;1.10;1.00;;;;;;;18.36;52.99;97708.23;104970;1263;66202;-44
2023/10/14 05:46:34;;;;;;;1.80;1.20;;;;;;;18.37;52.95;97708.52;105497;1262;72326;-46
2023/10/14 05:49:01;;;;;;;1.00;0.90;;;;;;;18.36;52.98;97704.96;105441;1263;61227;-44
2023/10/14 05:51:28;;;;;;;1.50;1.30;;;;;;;18.37;52.98;97703.58;106206;1262;61248;-46
2023/10/14 05:53:56;;;;;;;1.20;1.10;;;;;;;18.37;52.93;97702.58;105040;1263;74627;-45
2023/10/14 05:56:27;;;;;;;1.10;1.00;;;;;;;18.38;52.94;97702.66;105002;1265;65842;-44
2023/10/14 05:58:54;;;;;;;1.80;1.30;;;;;;;18.38;52.91;97699.80;105005;1262;72306;-45
2023/10/14 06:01:21;;;;;;;1.70;1.30;;;;;;;18.38;52.90;97701.58;104921;1265;61213;-46
2023/10/14 06:03:49;;;;;;;1.20;1.10;;;;;;;18.38;52.91;97700.81;104886;1262;61244;-44
2023/10/14 06:06:16;;;;;;;1.00;0.80;;;;;;;18.38;52.89;97697.33;104944;1265;75156;-44
2023/10/14 06:08:46;;;;;;;1.30;1.20;;;;;;;18.38;52.92;97702.46;105166;1265;65449;-43
2023/10/14 06:11:13;;;;;;;1.30;1.10;;;;;;;18.38;52.80;97699.05;105137;1264;71280;-43
2023/10/14 06:13:39;;;;;;;1.40;1.30;;;;;;;18.39;52.90;97699.45;105023;1264;61378;-44
2023/10/14 06:16:10;;;;;;;1.30;1.20;;;;;;;18.39;52.87;97696.90;105196;1262;61256;-44
2023/10/14 06:18:40;;;;;;;1.40;1.30;;;;;;;18.39;52.88;97693.24;105612;1265;74116;-46
2023/10/14 06:21:10;;;;;;;1.10;0.90;;;;;;;18.39;52.91;97691.16;105072;1265;66758;-44
2023/10/14 06:23:47;;;;;;;1.30;1.20;;;;;;;18.40;52.80;97690.33;105027;1262;72876;-45
2023/10/14 06:26:18;;;;;;;1.20;1.10;;;;;;;18.40;52.86;97685.52;105023;1265;61274;-46
2023/10/14 06:28:45;;;;;;;1.60;1.10;;;;;;;18.40;52.89;97685.52;104962;1262;61275;-44
2023/10/14 06:31:12;;;;;;;1.20;1.10;;;;;;;18.41;52.79;97683.77;105047;1265;75023;-44
2023/10/14 06:33:43;;;;;;;1.30;1.20;;;;;;;18.41;52.84;97682.67;104984;1265;66974;-45
2023/10/14 06:36:14;;;;;;;1.00;0.90;;;;;;;18.42;52.82;97680.61;104941;1265;72340;-44
2023/10/14 06:38:44;;;;;;;1.20;1.10;;;;;;;18.42;52.77;97677.92;105004;1265;61303;-45
2023/10/14 06:41:12;;;;;;;1.40;1.20;;;;;;;18.43;52.83;97674.05;104994;1262;61257;-44
2023/10/14 06:43:43;;;;;;;2.70;1.30;;;;;;;18.43;52.78;97672.45;104953;1266;74432;-44
2023/10/14 06:46:12;;;;;;;1.40;1.10;;;;;;;18.44;52.78;97666.97;104934;1268;65184;-44
2023/10/14 06:48:39;;;;;;;1.20;1.10;;;;;;;18.44;52.81;97665.27;104979;1263;73589;-45
2023/10/14 06:51:06;;;;;;;1.30;1.20;;;;;;;18.44;52.81;97666.81;104959;1265;61196;-44
2023/10/14 06:53:34;;;;;;;1.10;1.00;;;;;;;18.45;52.75;97664.29;104997;1262;61270;-44
2023/10/14 06:56:01;;;;;;;1.00;1.00;;;;;;;18.45;52.72;97662.05;104942;1265;75724;-45
2023/10/14 06:58:28;;;;;;;1.40;1.20;;;;;;;18.46;52.72;97664.41;105001;1265;66940;-45
2023/10/14 07:00:58;;;;;;;1.20;1.10;;;;;;;18.47;52.76;97665.98;104998;1261;73644;-45
2023/10/14 07:03:28;;;;;;;1.40;1.10;;;;;;;18.47;52.64;97667.46;104977;1265;61684;-45
2023/10/14 07:08:23;;;;;;;1.20;1.10;;;;;;;18.47;52.72;97666.15;104969;1264;75431;-44
2023/10/14 07:10:50;;;;;;;1.70;1.10;;;;;;;18.48;52.71;97660.81;104969;1265;68063;-44
2023/10/14 07:13:19;;;;;;;1.20;1.10;;;;;;;18.48;52.71;97658.10;104995;1265;73504;-44
2023/10/14 07:15:45;;;;;;;1.30;1.10;;;;;;;18.48;52.69;97654.69;105632;1264;61414;-45
2023/10/14 07:18:18;;;;;;;1.90;1.20;;;;;;;18.49;52.70;97645.27;106596;1264;61254;-44
2023/10/14 07:20:45;;;;;;;1.70;1.30;;;;;;;18.49;52.68;97643.87;106910;1263;75746;-44
2023/10/14 07:23:12;;;;;;;1.20;1.10;;;;;;;18.49;52.67;97642.56;105019;1265;66086;-44
2023/10/14 07:25:42;;;;;;;1.20;1.10;;;;;;;18.50;52.67;97639.33;105014;1264;72422;-44
2023/10/14 07:28:13;;;;;;;1.20;1.00;;;;;;;18.50;52.56;97634.92;104967;1262;61340;-44
2023/10/14 07:30:48;;;;;;;2.20;1.10;;;;;;;18.51;52.63;97629.59;104991;1265;61262;-44
2023/10/14 07:33:17;;;;;;;1.40;1.20;;;;;;;18.52;52.64;97628.98;104722;1262;76522;-44
2023/10/14 07:35:46;;;;;;;1.40;1.20;;;;;;;18.52;52.55;97632.32;107035;1264;67154;-45
2023/10/14 07:38:20;;;;;;;1.20;1.10;;;;;;;18.53;52.57;97631.49;104982;1264;73628;-44
2023/10/14 07:40:49;;;;;;;1.40;1.20;;;;;;;18.53;52.49;97630.27;104758;1262;61290;-46
2023/10/14 07:43:16;;;;;;;1.40;1.20;;;;;;;18.54;52.52;97631.29;105273;1261;61238;-46
2023/10/14 07:45:46;;;;;;;1.30;1.00;;;;;;;18.54;52.50;97629.83;105148;1264;75440;-45
2023/10/14 07:48:17;;;;;;;1.30;1.10;;;;;;;18.55;52.51;97630.36;104694;1267;67231;-44
2023/10/14 07:50:47;;;;;;;1.10;1.00;;;;;;;18.55;52.50;97630.84;108835;1262;73736;-45
2023/10/14 07:53:17;;;;;;;1.20;1.10;;;;;;;18.55;52.58;97626.34;105134;1264;61358;-45
2023/10/14 07:55:47;;;;;;;1.90;1.20;;;;;;;18.55;52.58;97622.73;108838;1261;60303;-45
2023/10/14 07:58:23;;;;;;;1.30;1.20;;;;;;;18.56;52.55;97624.90;108218;1266;74634;-45
2023/10/14 08:00:50;;;;;;;3.20;1.30;;;;;;;18.57;52.50;97621.38;105011;1262;64429;-45
2023/10/14 08:03:21;;;;;;;1.40;1.20;;;;;;;18.58;52.50;97617.61;105056;1262;72507;-44
2023/10/14 08:05:49;;;;;;;1.40;1.10;;;;;;;18.58;52.48;97611.41;105205;1265;61282;-44
2023/10/14 08:08:17;;;;;;;1.60;1.00;;;;;;;18.59;52.51;97610.81;105221;1262;61342;-44
2023/10/14 08:10:45;;;;;;;1.50;1.20;;;;;;;18.59;52.40;97608.64;104918;1265;74739;-44
2023/10/14 08:13:12;;;;;;;2.80;1.10;;;;;;;18.59;52.38;97607.78;105003;1265;67312;-43
2023/10/14 08:15:42;;;;;;;1.50;1.30;;;;;;;18.59;52.46;97606.09;104949;1265;73608;-44
2023/10/14 08:18:11;;;;;;;1.00;0.90;;;;;;;18.58;52.49;97605.38;105104;1265;61308;-45
2023/10/14 08:20:43;;;;;;;2.50;1.30;;;;;;;18.59;52.45;97601.34;104986;1265;61355;-43
2023/10/14 08:23:10;;;;;;;1.30;1.20;;;;;;;18.59;52.42;97602.05;105090;1268;74416;-44
2023/10/14 08:25:38;;;;;;;1.50;1.20;;;;;;;18.59;52.42;97596.15;104901;1265;66264;-44
2023/10/14 08:28:06;;;;;;;1.50;1.30;;;;;;;18.58;52.33;97597.09;105031;1265;72635;-44
2023/10/14 08:30:34;;;;;;;1.30;1.10;;;;;;;18.58;52.40;97591.11;104919;1274;61331;-44
2023/10/14 08:33:04;;;;;;;1.30;1.20;;;;;;;18.59;52.48;97588.33;105025;1261;61180;-44
2023/10/14 08:35:31;;;;;;;1.60;1.20;;;;;;;18.58;52.43;97589.88;105036;1265;74488;-44
2023/10/14 08:37:58;;;;;;;1.40;1.30;;;;;;;18.58;52.39;97589.64;105583;1265;64968;-43
2023/10/14 08:40:26;;;;;;;1.60;1.20;;;;;;;18.57;52.42;97584.97;105704;1265;72824;-44
2023/10/14 08:43:05;;;;;;;1.80;1.30;;;;;;;18.58;52.51;97584.05;105371;1274;61183;-45
2023/10/14 08:45:36;;;;;;;1.30;1.20;;;;;;;18.58;52.48;97580.73;105198;1265;61365;-45
2023/10/14 08:48:03;;;;;;;1.70;1.30;;;;;;;18.58;52.44;97573.27;104978;1265;172653;-44
2023/10/14 08:50:32;;;;;;;1.70;1.20;;;;;;;18.58;52.49;97569.24;105125;1265;66282;-44
2023/10/14 08:53:04;;;;;;;1.90;1.30;;;;;;;18.58;52.45;97566.00;104968;1266;72455;-44
2023/10/14 08:55:32;;;;;;;1.40;1.30;;;;;;;18.59;52.42;97568.86;105068;1266;61254;-44
2023/10/14 08:58:02;;;;;;;1.60;1.20;;;;;;;18.59;52.39;97569.58;105005;1260;61247;-45
2023/10/14 09:00:29;;;;;;;2.20;1.10;;;;;;;18.60;52.39;97564.40;104981;1261;73160;-45
2023/10/14 09:02:57;;;;;;;1.50;1.40;;;;;;;18.60;52.40;97565.27;105103;1274;67149;-44
2023/10/14 09:05:26;;;;;;;1.10;1.00;;;;;;;18.60;52.43;97562.39;104973;1265;72672;-45
2023/10/14 09:07:55;;;;;;;1.60;1.50;;;;;;;18.60;52.46;97559.14;105036;1266;61290;-44
2023/10/14 09:10:24;;;;;;;1.60;1.30;;;;;;;18.59;52.43;97559.05;105046;1267;61337;-44
2023/10/14 09:13:03;;;;;;;1.90;1.30;;;;;;;18.59;52.44;97559.59;107167;1265;74345;-44
2023/10/14 09:15:38;;;;;;;1.50;1.30;;;;;;;18.59;52.41;97553.46;105204;1265;64381;-46
2023/10/14 09:18:18;;;;;;;1.10;1.00;;;;;;;18.60;52.49;97551.17;104958;1266;71457;-45
2023/10/14 09:20:46;;;;;;;3.00;1.10;;;;;;;18.60;52.47;97547.77;105052;1267;61294;-43
2023/10/14 09:23:17;;;;;;;2.70;1.40;;;;;;;18.60;52.46;97547.76;105208;1263;61379;-44
2023/10/14 09:25:58;;;;;;;1.20;1.10;;;;;;;18.61;52.39;97543.81;104967;1265;75373;-44
2023/10/14 09:28:33;;;;;;;1.30;1.00;;;;;;;18.62;52.49;97545.30;105228;1265;65515;-45
2023/10/14 09:31:07;;;;;;;1.50;1.20;;;;;;;18.62;52.47;97534.86;105106;1265;71443;-44
2023/10/14 09:33:41;;;;;;;1.30;1.20;;;;;;;18.62;52.33;97531.38;105018;1271;61252;-44
2023/10/14 09:36:14;;;;;;;3.20;1.40;;;;;;;18.63;52.41;97529.92;105236;1265;61306;-44
2023/10/14 09:38:42;;;;;;;1.60;1.30;;;;;;;18.64;52.41;97532.49;105241;1274;73425;-44
2023/10/14 09:41:10;;;;;;;1.50;1.20;;;;;;;18.63;52.37;97528.67;104927;1271;64772;-45
2023/10/14 09:43:45;;;;;;;1.60;1.30;;;;;;;18.63;52.44;97524.56;105114;1265;72348;-45
2023/10/14 09:46:15;;;;;;;2.00;1.50;;;;;;;18.64;52.45;97523.11;104987;1266;61316;-46
2023/10/14 09:48:45;;;;;;;1.90;1.30;;;;;;;18.64;52.37;97520.42;105021;1265;61241;-44
2023/10/14 09:51:16;;;;;;;1.80;1.50;;;;;;;18.64;52.46;97511.11;105028;1274;76926;-44
2023/10/14 09:53:45;;;;;;;1.50;1.40;;;;;;;18.65;52.44;97505.41;105053;1265;65417;-44
2023/10/14 09:56:12;;;;;;;1.20;1.10;;;;;;;18.66;52.43;97507.05;105061;1265;72406;-44
2023/10/14 09:58:46;;;;;;;2.80;1.20;;;;;;;18.67;52.40;97506.99;107347;1265;61283;-44
2023/10/14 10:01:17;;;;;;;1.50;1.40;;;;;;;18.69;52.40;97495.02;104909;1261;61270;-44
2023/10/14 10:03:51;;;;;;;1.70;1.40;;;;;;;18.69;52.46;97491.77;105723;1265;74613;-44
2023/10/14 10:07:07;;;;;;;1.70;1.40;;;;;;;18.71;52.35;97488.63;105650;1260;66146;-44
2023/10/14 10:09:47;;;;;;;1.50;1.20;;;;;;;18.72;52.33;97486.96;105134;1261;72811;-44
2023/10/14 10:12:15;;;;;;;1.50;1.40;;;;;;;18.73;52.31;97484.48;104968;1266;61334;-44
2023/10/14 10:14:44;;;;;;;3.10;1.10;;;;;;;18.74;52.36;97484.44;105189;1266;61357;-44
2023/10/14 10:17:12;;;;;;;1.90;1.40;;;;;;;18.74;52.37;97479.02;105037;1261;75444;-45
2023/10/14 10:20:17;;;;;;;1.70;1.40;;;;;;;18.75;52.29;97471.82;105104;1266;65136;-44
2023/10/14 10:22:50;;;;;;;1.80;1.40;;;;;;;18.75;52.21;97472.52;105182;1265;72659;-44
2023/10/14 10:25:17;;;;;;;1.80;1.40;;;;;;;18.75;52.23;97469.36;104917;1261;61293;-45
2023/10/14 10:27:45;;;;;;;1.90;1.30;;;;;;;18.76;52.29;97470.38;105113;1264;61458;-45
2023/10/14 10:30:13;;;;;;;1.70;1.40;;;;;;;18.76;52.30;97467.36;105232;1266;74428;-44
2023/10/14 10:32:41;;;;;;;1.80;1.40;;;;;;;18.77;52.30;97463.80;105084;1265;65910;-43
2023/10/14 10:35:10;;;;;;;3.70;1.40;;;;;;;18.77;52.27;97459.39;105121;1265;72420;-44
2023/10/14 10:37:40;;;;;;;1.50;1.30;;;;;;;18.77;52.33;97451.02;105081;1275;61354;-44
2023/10/14 10:40:10;;;;;;;1.50;1.30;;;;;;;18.77;52.33;97451.95;104942;1266;61362;-44
2023/10/14 10:42:45;;;;;;;1.80;1.40;;;;;;;18.78;52.32;97445.77;105097;1265;74388;-43
2023/10/14 10:45:21;;;;;;;2.00;1.50;;;;;;;18.78;52.29;97443.52;105178;1265;66484;-44
2023/10/14 10:47:56;;;;;;;1.50;1.20;;;;;;;18.78;52.30;97443.54;105209;1265;72553;-44
2023/10/14 10:50:48;;;;;;;1.80;1.40;;;;;;;18.79;52.23;97442.00;105092;1260;61362;-46
2023/10/14 10:53:17;;;;;;;2.30;1.40;;;;;;;18.79;52.28;97437.89;105064;1264;61271;-44
2023/10/14 10:55:46;;;;;;;1.70;1.30;;;;;;;18.80;52.27;97437.98;104977;1266;73937;-44
2023/10/14 10:58:13;;;;;;;2.20;1.50;;;;;;;18.80;52.21;97437.61;105009;1269;65456;-45
2023/10/14 11:00:42;;;;;;;1.90;1.60;;;;;;;18.81;52.25;97436.39;105016;1263;72461;-45
2023/10/14 11:03:14;;;;;;;2.00;1.40;;;;;;;18.82;52.19;97434.77;105016;1267;61252;-44
2023/10/14 11:05:45;;;;;;;1.90;1.60;;;;;;;18.82;52.23;97435.55;105021;1261;61440;-44
2023/10/14 11:08:15;;;;;;;1.60;1.30;;;;;;;18.83;52.25;97432.09;105215;1267;74400;-47
2023/10/14 11:10:43;;;;;;;2.00;1.40;;;;;;;18.83;52.22;97425.64;105022;1266;65014;-45
2023/10/14 11:13:13;;;;;;;2.50;1.50;;;;;;;18.83;52.25;97423.71;104992;1260;72579;-45
2023/10/14 11:15:40;;;;;;;2.00;1.50;;;;;;;18.84;52.23;97422.88;104985;1266;61333;-44
2023/10/14 11:18:09;;;;;;;2.50;1.50;;;;;;;18.84;52.19;97423.50;105010;1264;61262;-44
2023/10/14 11:20:46;;;;;;;1.60;1.30;;;;;;;18.85;52.24;97417.54;104911;1266;74416;-44
2023/10/14 11:23:13;;;;;;;2.30;1.50;;;;;;;18.85;52.25;97415.08;104987;1261;65888;-44
2023/10/14 11:25:53;;;;;;;1.50;1.30;;;;;;;18.86;52.24;97416.88;105500;1265;72313;-45
2023/10/14 11:28:21;;;;;;;1.90;1.40;;;;;;;18.87;52.22;97414.56;106042;1266;61296;-44
2023/10/14 11:30:48;;;;;;;2.40;1.60;;;;;;;18.88;52.19;97417.76;105345;1266;61237;-46
2023/10/14 11:33:18;;;;;;;2.60;1.40;;;;;;;18.89;52.23;97411.05;105036;1264;74607;-46
2023/10/14 11:35:49;;;;;;;1.60;1.40;;;;;;;18.91;52.19;97410.38;105022;1265;65127;-44
2023/10/14 11:38:16;;;;;;;2.40;1.70;;;;;;;18.91;52.18;97409.83;104953;1261;71463;-44
2023/10/14 11:40:47;;;;;;;2.10;1.60;;;;;;;18.92;52.17;97409.80;104805;1264;61355;-44
2023/10/14 11:43:15;;;;;;;2.70;1.70;;;;;;;18.92;52.16;97405.29;106546;1265;61184;-43
2023/10/14 11:45:45;;;;;;;1.90;1.50;;;;;;;18.92;52.23;97403.35;105196;1261;72368;-44
2023/10/14 11:48:30;;;;;;;1.90;1.40;;;;;;;18.93;52.22;97404.13;105131;1266;66533;-45
2023/10/14 11:51:01;;;;;;;5.20;1.90;;;;;;;18.94;52.10;97407.41;105022;1274;72714;-44
2023/10/14 11:53:29;;;;;;;2.30;1.50;;;;;;;18.96;52.21;97406.83;105004;1264;61277;-44
2023/10/14 11:56:00;;;;;;;2.10;1.50;;;;;;;18.97;52.05;97401.42;104977;1261;61256;-45
2023/10/14 11:58:31;;;;;;;2.00;1.60;;;;;;;18.99;52.09;97398.13;104996;1260;74886;-44
2023/10/14 12:00:58;;;;;;;2.30;1.60;;;;;;;19.02;52.06;97394.77;105018;1264;66632;-46
2023/10/14 12:03:25;;;;;;;2.00;1.60;;;;;;;19.03;52.00;97392.71;105047;1267;72335;-44
2023/10/14 12:05:59;;;;;;;1.90;1.40;;;;;;;19.05;52.02;97390.73;105071;1266;61195;-45
2023/10/14 12:08:39;;;;;;;1.60;1.40;;;;;;;19.08;51.94;97386.05;104763;1267;61281;-44
2023/10/14 12:11:08;;;;;;;3.50;1.30;;;;;;;19.10;51.89;97381.45;104958;1260;74466;-44
2023/10/14 12:13:35;;;;;;;1.70;1.40;;;;;;;19.13;51.85;97382.89;105687;1261;65169;-44
2023/10/14 12:16:21;;;;;;;2.20;1.80;;;;;;;19.16;51.91;97381.16;104903;1267;72492;-45
2023/10/14 12:18:54;;;;;;;2.80;1.60;;;;;;;19.19;51.87;97374.92;104774;1266;61140;-44
2023/10/14 12:21:22;;;;;;;2.10;1.70;;;;;;;19.22;51.78;97375.05;105465;1265;61227;-44
2023/10/14 12:23:49;;;;;;;2.40;1.50;;;;;;;19.24;51.72;97370.91;105649;1264;75516;-45
2023/10/14 12:26:16;;;;;;;2.00;1.40;;;;;;;19.26;51.64;97368.92;105054;1265;65923;-44